Time;durP1;ratioP1;P1;durP2;ratioP2;P2;SDS_P1;SDS_P2;PMS_P1;PMS_P2;Temp;Humidity;BMP_temperature;BMP_pressure;BME280_temperature;BME280_humidity;BME280_pressure;Samples;Min_cycle;Max_cycle;Signal;HPM_P1;HPM_P2
2021/08/05 00:01:23;;;;;;;12.25;4.40;;;;;;;;;;4952517;29;20028;-70
2021/08/05 00:03:49;;;;;;;7.53;4.43;;;;;;;;;;4947822;29;20039;-70
2021/08/05 00:06:15;;;;;;;8.82;4.72;;;;;;;;;;4953112;29;20070;-69
2021/08/05 00:08:41;;;;;;;9.98;4.72;;;;;;;;;;4947711;28;20058;-69
2021/08/05 00:11:07;;;;;;;9.48;5.25;;;;;;;;;;4953542;29;20039;-70
2021/08/05 00:13:33;;;;;;;8.13;4.97;;;;;;;;;;4952676;29;20122;-70
2021/08/05 00:15:59;;;;;;;9.13;5.47;;;;;;;;;;4953408;29;20023;-68
2021/08/05 00:18:25;;;;;;;8.35;5.65;;;;;;;;;;4955012;28;20484;-69
2021/08/05 00:20:51;;;;;;;11.88;6.13;;;;;;;;;;4952987;29;20042;-69
2021/08/05 00:23:20;;;;;;;11.95;6.13;;;;;;;;;;4959607;29;20113;-70
2021/08/05 00:25:49;;;;;;;13.02;6.75;;;;;;;;;;4938566;29;20035;-71
2021/08/05 00:28:15;;;;;;;11.45;6.20;;;;;;;;;;4957079;29;20050;-69
2021/08/05 00:30:41;;;;;;;15.23;6.50;;;;;;;;;;4957022;29;20517;-69
2021/08/05 00:33:07;;;;;;;14.18;7.25;;;;;;;;;;4956348;29;20397;-70
2021/08/05 00:35:33;;;;;;;10.68;6.35;;;;;;;;;;4956997;29;20081;-68
2021/08/05 00:37:59;;;;;;;15.45;7.07;;;;;;;;;;4956785;29;20034;-70
2021/08/05 00:40:25;;;;;;;11.40;6.65;;;;;;;;;;4954614;28;20520;-67
2021/08/05 00:42:53;;;;;;;13.85;7.15;;;;;;;;;;4956448;29;20178;-69
2021/08/05 00:45:19;;;;;;;12.05;6.22;;;;;;;;;;4956909;29;20019;-69
2021/08/05 00:47:45;;;;;;;14.07;6.38;;;;;;;;;;4955960;29;20039;-70
2021/08/05 00:50:12;;;;;;;13.65;6.70;;;;;;;;;;4956488;29;20031;-69
2021/08/05 00:52:38;;;;;;;10.43;6.20;;;;;;;;;;4955688;29;20031;-69
2021/08/05 00:55:05;;;;;;;14.02;6.28;;;;;;;;;;4956665;29;20036;-70
2021/08/05 00:57:31;;;;;;;10.15;6.53;;;;;;;;;;4956154;29;20114;-70
2021/08/05 00:59:58;;;;;;;13.90;6.60;;;;;;;;;;4955597;29;20110;-69
2021/08/05 01:02:26;;;;;;;9.80;6.03;;;;;;;;;;4955796;29;20477;-70
2021/08/05 01:04:54;;;;;;;11.63;6.15;;;;;;;;;;4956325;29;20024;-68
2021/08/05 01:07:24;;;;;;;15.18;6.28;;;;;;;;;;4956244;29;20034;-69
2021/08/05 01:09:50;;;;;;;12.90;6.45;;;;;;;;;;4955910;29;20030;-71
2021/08/05 01:12:26;;;;;;;17.52;6.53;;;;;;;;;;4956576;29;20035;-70
2021/08/05 01:15:02;;;;;;;11.75;6.85;;;;;;;;;;4957718;28;20043;-69
2021/08/05 01:17:29;;;;;;;13.10;7.10;;;;;;;;;;4955999;28;20086;-70
2021/08/05 01:19:59;;;;;;;12.77;6.85;;;;;;;;;;4955654;29;20024;-70
2021/08/05 01:22:25;;;;;;;16.05;6.82;;;;;;;;;;4955102;29;20027;-73
2021/08/05 01:24:55;;;;;;;11.90;6.22;;;;;;;;;;4955763;29;20035;-70
2021/08/05 01:27:21;;;;;;;12.80;6.28;;;;;;;;;;4955992;29;20030;-70
2021/08/05 01:29:48;;;;;;;12.10;6.35;;;;;;;;;;4961051;29;20058;-69
2021/08/05 01:32:15;;;;;;;13.88;5.93;;;;;;;;;;4955670;29;20106;-70
2021/08/05 01:34:41;;;;;;;11.05;5.55;;;;;;;;;;4954024;28;20070;-71
2021/08/05 01:37:08;;;;;;;15.48;5.55;;;;;;;;;;4955497;28;20027;-69
2021/08/05 01:39:34;;;;;;;10.23;5.53;;;;;;;;;;4954880;29;20489;-69
2021/08/05 01:42:00;;;;;;;8.60;5.25;;;;;;;;;;4955798;29;20031;-69
2021/08/05 01:44:27;;;;;;;11.38;4.93;;;;;;;;;;4955948;28;20476;-69
2021/08/05 01:46:54;;;;;;;8.60;4.60;;;;;;;;;;4955683;29;20151;-70
2021/08/05 01:49:21;;;;;;;8.18;4.90;;;;;;;;;;4955308;29;20039;-69
2021/08/05 01:51:48;;;;;;;9.32;4.95;;;;;;;;;;4958352;28;20035;-70
2021/08/05 01:54:15;;;;;;;9.18;4.82;;;;;;;;;;4954573;29;20046;-70
2021/08/05 01:56:41;;;;;;;9.65;5.13;;;;;;;;;;4953569;28;20039;-69
2021/08/05 01:59:07;;;;;;;10.15;4.95;;;;;;;;;;4955311;29;20110;-69
2021/08/05 02:01:33;;;;;;;12.13;5.82;;;;;;;;;;4954686;29;20034;-70
2021/08/05 02:04:05;;;;;;;10.52;5.85;;;;;;;;;;4955256;29;20043;-70
2021/08/05 02:06:33;;;;;;;10.35;5.60;;;;;;;;;;4955314;28;20035;-70
2021/08/05 02:09:07;;;;;;;10.98;5.40;;;;;;;;;;4954670;28;20085;-71
2021/08/05 02:11:34;;;;;;;11.02;5.57;;;;;;;;;;4946765;29;20035;-69
2021/08/05 02:14:02;;;;;;;10.02;5.70;;;;;;;;;;4954708;29;20047;-71
2021/08/05 02:16:31;;;;;;;9.27;4.90;;;;;;;;;;4955246;29;20473;-71
2021/08/05 02:18:58;;;;;;;9.57;4.97;;;;;;;;;;4939738;29;20449;-70
2021/08/05 02:21:25;;;;;;;8.82;4.85;;;;;;;;;;4955318;29;20040;-69
2021/08/05 02:23:53;;;;;;;7.72;4.60;;;;;;;;;;4954197;29;20035;-70
2021/08/05 02:26:20;;;;;;;10.00;4.53;;;;;;;;;;4955881;28;20102;-69
2021/08/05 02:28:46;;;;;;;7.15;4.50;;;;;;;;;;4958668;28;20027;-70
2021/08/05 02:31:13;;;;;;;6.90;4.60;;;;;;;;;;4954803;29;20031;-71
2021/08/05 02:33:39;;;;;;;9.77;4.63;;;;;;;;;;4954469;29;20062;-69
2021/08/05 02:36:06;;;;;;;7.93;4.57;;;;;;;;;;4954555;29;20031;-70
2021/08/05 02:38:32;;;;;;;7.10;4.70;;;;;;;;;;4954207;29;20039;-70
2021/08/05 02:40:58;;;;;;;7.43;4.63;;;;;;;;;;4954057;29;20034;-69
2021/08/05 02:43:27;;;;;;;7.70;5.10;;;;;;;;;;4954820;29;20077;-70
2021/08/05 02:45:53;;;;;;;9.18;4.95;;;;;;;;;;4954551;29;20385;-68
2021/08/05 02:48:20;;;;;;;8.40;4.95;;;;;;;;;;4954282;28;20023;-70
2021/08/05 02:50:46;;;;;;;9.88;4.65;;;;;;;;;;4954196;29;20025;-68
2021/08/05 02:53:13;;;;;;;7.93;4.50;;;;;;;;;;4946913;29;20031;-68
2021/08/05 02:55:39;;;;;;;9.02;4.53;;;;;;;;;;4953873;29;20027;-69
2021/08/05 02:58:06;;;;;;;9.07;5.15;;;;;;;;;;4953687;29;20026;-71
2021/08/05 03:00:32;;;;;;;10.95;5.03;;;;;;;;;;4954168;29;20034;-70
2021/08/05 03:02:58;;;;;;;9.43;5.05;;;;;;;;;;4954582;29;20388;-71
2021/08/05 03:05:24;;;;;;;7.82;5.10;;;;;;;;;;4953791;29;20023;-70
2021/08/05 03:07:50;;;;;;;9.70;5.25;;;;;;;;;;4954199;28;20047;-70
2021/08/05 03:10:17;;;;;;;9.02;4.90;;;;;;;;;;4953255;29;20031;-70
2021/08/05 03:12:44;;;;;;;8.55;4.80;;;;;;;;;;4953801;29;20039;-71
2021/08/05 03:15:10;;;;;;;7.93;4.70;;;;;;;;;;4954083;29;20403;-69
2021/08/05 03:17:36;;;;;;;7.43;5.05;;;;;;;;;;4953795;29;20023;-71
2021/08/05 03:20:03;;;;;;;12.70;5.50;;;;;;;;;;4953467;29;20520;-70
2021/08/05 03:22:29;;;;;;;10.70;5.15;;;;;;;;;;4953690;29;20034;-70
2021/08/05 03:24:55;;;;;;;9.85;4.63;;;;;;;;;;4952769;28;20078;-70
2021/08/05 03:27:21;;;;;;;10.85;4.97;;;;;;;;;;4954099;29;20055;-71
2021/08/05 03:29:47;;;;;;;8.63;4.90;;;;;;;;;;4953268;29;20043;-69
2021/08/05 03:32:13;;;;;;;9.52;4.53;;;;;;;;;;4953467;29;20126;-70
2021/08/05 03:34:39;;;;;;;8.93;4.68;;;;;;;;;;4953374;29;20039;-70
2021/08/05 03:37:06;;;;;;;7.70;4.55;;;;;;;;;;4953900;29;20195;-70
2021/08/05 03:39:32;;;;;;;9.68;5.03;;;;;;;;;;4953034;29;20162;-71
2021/08/05 03:41:58;;;;;;;10.00;4.25;;;;;;;;;;4953568;29;20027;-69
2021/08/05 03:44:24;;;;;;;11.18;5.05;;;;;;;;;;4958276;29;20165;-69
2021/08/05 03:46:50;;;;;;;7.00;4.60;;;;;;;;;;4953657;29;20027;-69
2021/08/05 03:49:16;;;;;;;9.65;4.75;;;;;;;;;;4953031;29;20554;-71
2021/08/05 03:51:42;;;;;;;9.48;5.10;;;;;;;;;;4952758;29;20031;-69
2021/08/05 03:54:09;;;;;;;6.85;4.70;;;;;;;;;;4953251;29;20118;-69
2021/08/05 03:56:35;;;;;;;8.45;5.18;;;;;;;;;;4952808;29;20118;-69
2021/08/05 03:59:01;;;;;;;10.45;5.10;;;;;;;;;;4953756;29;20397;-69
2021/08/05 04:01:27;;;;;;;10.98;5.57;;;;;;;;;;4951268;28;20533;-70
2021/08/05 04:03:53;;;;;;;10.18;4.78;;;;;;;;;;4956524;28;20031;-71
2021/08/05 04:06:19;;;;;;;9.15;4.95;;;;;;;;;;4955860;28;20019;-70
2021/08/05 04:08:45;;;;;;;8.10;4.75;;;;;;;;;;4945871;28;20417;-69
2021/08/05 04:11:12;;;;;;;13.48;5.13;;;;;;;;;;4953382;29;20059;-70
2021/08/05 04:13:38;;;;;;;10.90;4.78;;;;;;;;;;4952781;29;20047;-70
2021/08/05 04:16:04;;;;;;;9.80;4.85;;;;;;;;;;4952829;29;20031;-69
2021/08/05 04:18:30;;;;;;;10.40;4.90;;;;;;;;;;4952971;29;20035;-69
2021/08/05 04:20:56;;;;;;;10.45;5.15;;;;;;;;;;4952946;29;20113;-70
2021/08/05 04:23:22;;;;;;;11.18;4.97;;;;;;;;;;4952172;28;20023;-70
2021/08/05 04:25:48;;;;;;;11.85;5.07;;;;;;;;;;4953162;29;20079;-71
2021/08/05 04:28:14;;;;;;;14.95;5.25;;;;;;;;;;4953017;29;20102;-69
2021/08/05 04:30:40;;;;;;;13.20;4.97;;;;;;;;;;4952534;29;20054;-70
2021/08/05 04:33:06;;;;;;;11.60;5.03;;;;;;;;;;4947048;29;20571;-70
2021/08/05 04:35:32;;;;;;;13.80;5.28;;;;;;;;;;4946690;29;20042;-69
2021/08/05 04:38:00;;;;;;;12.50;5.57;;;;;;;;;;4955894;28;20031;-67
2021/08/05 04:40:27;;;;;;;12.55;5.35;;;;;;;;;;4952715;28;20035;-73
2021/08/05 04:42:53;;;;;;;12.23;5.30;;;;;;;;;;4952784;28;20389;-69
2021/08/05 04:45:20;;;;;;;18.02;5.68;;;;;;;;;;4958829;28;20023;-83
2021/08/05 04:47:55;;;;;;;18.95;4.90;;;;;;;;;;4952776;28;20572;-79
2021/08/05 04:50:21;;;;;;;12.15;5.10;;;;;;;;;;4952299;29;20039;-71
2021/08/05 04:52:47;;;;;;;9.43;5.07;;;;;;;;;;4951597;29;20023;-72
2021/08/05 04:55:14;;;;;;;10.18;4.90;;;;;;;;;;4956946;28;20638;-70
2021/08/05 04:58:09;;;;;;;16.55;5.82;;;;;;;;;;4951442;28;20103;-71
2021/08/05 05:00:39;;;;;;;14.88;5.80;;;;;;;;;;4893481;29;20546;-79
2021/08/05 05:03:06;;;;;;;14.85;5.05;;;;;;;;;;4893606;29;20036;-72
2021/08/05 05:05:32;;;;;;;15.10;5.00;;;;;;;;;;4893718;29;20051;-64
2021/08/05 05:08:11;;;;;;;15.30;5.25;;;;;;;;;;4900321;29;20060;-79
2021/08/05 05:10:38;;;;;;;18.05;4.90;;;;;;;;;;4911839;29;20090;-80
2021/08/05 05:13:04;;;;;;;18.65;5.35;;;;;;;;;;4913567;29;20143;-81
2021/08/05 05:15:30;;;;;;;19.15;5.38;;;;;;;;;;4915897;29;20036;-78
2021/08/05 05:17:56;;;;;;;10.77;4.53;;;;;;;;;;4915476;29;20043;-79
2021/08/05 05:20:22;;;;;;;16.98;5.00;;;;;;;;;;4915499;29;20456;-78
2021/08/05 05:22:48;;;;;;;19.45;5.30;;;;;;;;;;4915555;29;20033;-78
2021/08/05 05:25:14;;;;;;;16.00;5.50;;;;;;;;;;4915031;29;20079;-63
2021/08/05 05:27:41;;;;;;;18.90;5.45;;;;;;;;;;4915565;29;20020;-64
2021/08/05 05:30:07;;;;;;;15.43;5.50;;;;;;;;;;4908118;29;20048;-64
2021/08/05 05:32:33;;;;;;;12.65;5.43;;;;;;;;;;4915313;29;20066;-78
2021/08/05 05:34:59;;;;;;;18.02;5.20;;;;;;;;;;4916266;29;20040;-61
2021/08/05 05:37:26;;;;;;;23.88;5.65;;;;;;;;;;4943471;29;20039;-78
2021/08/05 05:39:53;;;;;;;12.98;4.75;;;;;;;;;;4955039;28;20027;-76
2021/08/05 05:42:19;;;;;;;12.65;4.95;;;;;;;;;;4955658;28;20032;-77
2021/08/05 05:44:45;;;;;;;24.42;5.97;;;;;;;;;;4960452;29;20480;-74
2021/08/05 05:47:12;;;;;;;19.75;5.85;;;;;;;;;;4955510;28;20027;-80
2021/08/05 05:49:38;;;;;;;21.27;5.80;;;;;;;;;;4955251;29;20035;-79
2021/08/05 05:52:04;;;;;;;17.38;5.05;;;;;;;;;;4955223;29;20523;-79
2021/08/05 05:54:30;;;;;;;15.50;5.72;;;;;;;;;;4955108;28;20393;-75
2021/08/05 05:56:56;;;;;;;18.80;5.40;;;;;;;;;;4955479;29;20035;-75
2021/08/05 05:59:22;;;;;;;19.80;6.20;;;;;;;;;;4955326;28;20027;-80
2021/08/05 06:01:48;;;;;;;20.05;5.28;;;;;;;;;;4955165;28;20470;-64
2021/08/05 06:04:14;;;;;;;14.13;5.20;;;;;;;;;;4954981;29;20393;-63
2021/08/05 06:06:40;;;;;;;17.83;4.97;;;;;;;;;;4955451;28;20755;-71
2021/08/05 06:09:06;;;;;;;17.55;4.90;;;;;;;;;;4954219;28;20118;-80
2021/08/05 06:11:33;;;;;;;19.13;5.78;;;;;;;;;;4955186;29;20106;-78
2021/08/05 06:13:59;;;;;;;16.88;5.22;;;;;;;;;;4954854;29;20090;-77
2021/08/05 06:16:25;;;;;;;15.10;5.05;;;;;;;;;;4955165;29;20038;-80
2021/08/05 06:18:51;;;;;;;21.83;5.13;;;;;;;;;;4954632;29;20041;-74
2021/08/05 06:21:17;;;;;;;19.98;5.22;;;;;;;;;;4954574;29;20027;-79
2021/08/05 06:23:43;;;;;;;13.02;5.07;;;;;;;;;;4954425;28;20027;-80
2021/08/05 06:26:09;;;;;;;21.00;6.00;;;;;;;;;;4954575;29;20529;-80
2021/08/05 06:28:35;;;;;;;18.98;5.95;;;;;;;;;;4954934;29;20035;-76
2021/08/05 06:31:02;;;;;;;24.20;5.70;;;;;;;;;;4954502;29;20027;-75
2021/08/05 06:33:28;;;;;;;16.38;5.25;;;;;;;;;;4954985;29;20063;-77
2021/08/05 06:35:54;;;;;;;20.15;5.63;;;;;;;;;;4954506;29;20027;-79
2021/08/05 06:38:20;;;;;;;14.90;5.72;;;;;;;;;;4954148;29;20050;-71
2021/08/05 06:40:46;;;;;;;22.05;5.78;;;;;;;;;;4954386;29;20023;-75
2021/08/05 06:43:12;;;;;;;20.98;5.63;;;;;;;;;;4937040;29;20113;-78
2021/08/05 06:45:39;;;;;;;13.57;5.43;;;;;;;;;;4954513;29;20150;-77
2021/08/05 06:48:05;;;;;;;29.08;7.10;;;;;;;;;;4954514;29;20043;-68
2021/08/05 06:50:31;;;;;;;20.58;6.03;;;;;;;;;;4947162;29;20035;-63
2021/08/05 06:52:57;;;;;;;23.83;5.68;;;;;;;;;;4954038;29;20098;-79
2021/08/05 06:55:23;;;;;;;24.67;6.53;;;;;;;;;;4954032;29;20117;-79
2021/08/05 06:57:50;;;;;;;20.30;5.90;;;;;;;;;;4954533;29;20035;-79
2021/08/05 07:00:16;;;;;;;21.95;5.30;;;;;;;;;;4953915;29;20367;-73
2021/08/05 07:02:42;;;;;;;25.60;6.72;;;;;;;;;;4953932;29;20039;-76
2021/08/05 07:05:10;;;;;;;18.55;6.13;;;;;;;;;;4954190;29;20027;-74
2021/08/05 07:07:36;;;;;;;16.00;6.13;;;;;;;;;;4953330;28;20049;-79
2021/08/05 07:10:03;;;;;;;16.42;5.93;;;;;;;;;;4953295;29;20031;-64
2021/08/05 07:12:29;;;;;;;15.20;5.60;;;;;;;;;;4954019;29;20485;-79
2021/08/05 07:14:55;;;;;;;22.17;6.38;;;;;;;;;;4952569;28;20070;-62
2021/08/05 07:17:21;;;;;;;23.67;6.03;;;;;;;;;;4953303;29;20553;-67
2021/08/05 07:19:48;;;;;;;14.45;5.40;;;;;;;;;;4953559;29;20035;-91
2021/08/05 07:22:14;;;;;;;20.17;5.95;;;;;;;;;;4953094;29;20058;-72
2021/08/05 07:24:40;;;;;;;18.63;5.88;;;;;;;;;;4959868;28;20039;-76
2021/08/05 07:27:06;;;;;;;15.10;5.65;;;;;;;;;;4953101;29;20034;-74
2021/08/05 07:29:32;;;;;;;27.83;6.18;;;;;;;;;;4953112;29;20438;-73
2021/08/05 07:32:04;;;;;;;17.95;5.60;;;;;;;;;;4953735;28;20038;-71
2021/08/05 07:34:36;;;;;;;20.00;5.78;;;;;;;;;;4952878;29;20028;-69
2021/08/05 07:37:03;;;;;;;18.45;6.15;;;;;;;;;;4952706;29;20035;-71
2021/08/05 07:39:29;;;;;;;15.32;5.53;;;;;;;;;;4952658;29;20031;-74
2021/08/05 07:41:55;;;;;;;27.27;5.97;;;;;;;;;;4953254;29;20038;-74
2021/08/05 07:44:21;;;;;;;25.50;6.22;;;;;;;;;;4953624;29;20031;-70
2021/08/05 07:46:48;;;;;;;33.85;7.45;;;;;;;;;;4952900;29;20028;-76
2021/08/05 07:49:14;;;;;;;27.55;6.93;;;;;;;;;;4953724;28;20508;-73
2021/08/05 07:51:40;;;;;;;23.75;7.00;;;;;;;;;;4953153;29;20031;-78
2021/08/05 07:54:06;;;;;;;23.00;6.85;;;;;;;;;;4953246;29;20046;-75
2021/08/05 07:56:32;;;;;;;25.88;7.10;;;;;;;;;;4952588;29;20105;-77
2021/08/05 07:58:59;;;;;;;17.88;6.30;;;;;;;;;;4953300;29;20033;-75
2021/08/05 08:01:25;;;;;;;15.43;5.00;;;;;;;;;;4946237;29;20031;-72
2021/08/05 08:03:51;;;;;;;13.82;4.63;;;;;;;;;;4953494;29;20138;-75
2021/08/05 08:06:17;;;;;;;12.25;4.53;;;;;;;;;;4953109;29;20023;-71
2021/08/05 08:08:43;;;;;;;19.45;4.32;;;;;;;;;;4952482;28;20051;-77
2021/08/05 08:11:09;;;;;;;8.05;3.80;;;;;;;;;;4952313;29;20107;-68
2021/08/05 08:13:35;;;;;;;9.82;3.50;;;;;;;;;;4952682;29;20035;-71
2021/08/05 08:16:01;;;;;;;8.27;3.72;;;;;;;;;;4953204;28;20031;-74
2021/08/05 08:18:27;;;;;;;10.23;3.22;;;;;;;;;;4952930;29;20094;-81
2021/08/05 08:20:57;;;;;;;6.45;3.35;;;;;;;;;;4952916;29;20027;-86
2021/08/05 08:23:24;;;;;;;8.38;3.70;;;;;;;;;;4952043;29;20055;-70
2021/08/05 08:25:50;;;;;;;8.23;3.47;;;;;;;;;;4951370;29;20557;-70
2021/08/05 08:28:38;;;;;;;13.45;3.45;;;;;;;;;;4953368;29;20030;-73
2021/08/05 08:31:04;;;;;;;7.00;3.40;;;;;;;;;;4951431;28;20023;-71
2021/08/05 08:33:30;;;;;;;11.98;3.75;;;;;;;;;;4951846;29;20098;-66
2021/08/05 08:35:57;;;;;;;10.52;3.85;;;;;;;;;;4952322;29;20102;-66
2021/08/05 08:38:26;;;;;;;7.53;3.42;;;;;;;;;;4952686;29;20450;-72
2021/08/05 08:40:55;;;;;;;10.32;3.60;;;;;;;;;;4952776;29;20030;-74
2021/08/05 08:43:21;;;;;;;9.23;3.75;;;;;;;;;;4952730;29;20059;-76
2021/08/05 08:45:51;;;;;;;8.32;3.78;;;;;;;;;;4952635;29;20031;-74
2021/08/05 08:48:17;;;;;;;10.30;3.97;;;;;;;;;;4955516;28;20023;-72
2021/08/05 08:50:44;;;;;;;15.60;4.13;;;;;;;;;;4956311;29;20027;-69
2021/08/05 08:53:11;;;;;;;14.30;4.05;;;;;;;;;;4955869;29;20023;-70
2021/08/05 08:55:39;;;;;;;10.77;3.70;;;;;;;;;;4956233;28;20037;-67
2021/08/05 08:58:06;;;;;;;10.25;4.68;;;;;;;;;;4955277;29;20035;-71
2021/08/05 09:00:36;;;;;;;8.82;3.70;;;;;;;;;;4938752;29;20031;-80
2021/08/05 09:03:02;;;;;;;10.48;4.40;;;;;;;;;;4938064;29;20035;-82
2021/08/05 09:05:29;;;;;;;9.60;3.75;;;;;;;;;;4955272;29;20031;-82
2021/08/05 09:07:57;;;;;;;9.48;4.03;;;;;;;;;;4954770;28;20057;-76
2021/08/05 09:10:24;;;;;;;9.15;3.83;;;;;;;;;;4954940;29;20106;-73
2021/08/05 09:12:54;;;;;;;11.00;4.00;;;;;;;;;;4955505;29;20035;-70
2021/08/05 09:15:37;;;;;;;10.65;3.83;;;;;;;;;;4953478;29;20071;-69
2021/08/05 09:18:03;;;;;;;;;;;;;;;;;;4955385;29;20448;-70
2021/08/05 09:20:32;;;;;;;10.27;4.68;;;;;;;;;;4954443;29;20036;-70
2021/08/05 09:23:29;;;;;;;9.85;4.50;;;;;;;;;;4954526;29;20027;-73
2021/08/05 09:25:55;;;;;;;11.55;4.60;;;;;;;;;;4933861;29;20032;-72
2021/08/05 09:28:21;;;;;;;10.88;4.25;;;;;;;;;;4955425;29;20038;-75
2021/08/05 09:30:47;;;;;;;13.55;4.20;;;;;;;;;;4957851;28;20023;-69
2021/08/05 09:33:14;;;;;;;10.65;4.50;;;;;;;;;;4954663;29;20049;-67
2021/08/05 09:35:41;;;;;;;10.45;4.40;;;;;;;;;;4954985;29;20172;-67
2021/08/05 09:38:20;;;;;;;9.40;5.00;;;;;;;;;;4955254;29;20015;-69
2021/08/05 09:40:47;;;;;;;10.52;5.22;;;;;;;;;;4952748;28;20094;-74
2021/08/05 09:43:14;;;;;;;10.40;4.78;;;;;;;;;;4954144;29;20510;-70
2021/08/05 09:45:40;;;;;;;8.38;4.50;;;;;;;;;;4954543;29;20027;-74
2021/08/05 09:48:07;;;;;;;11.50;5.22;;;;;;;;;;4954784;29;20031;-79
2021/08/05 09:50:44;;;;;;;9.65;5.20;;;;;;;;;;4955289;29;20035;-75
2021/08/05 09:53:11;;;;;;;14.70;5.03;;;;;;;;;;4954353;29;20086;-72
2021/08/05 09:55:41;;;;;;;17.02;5.95;;;;;;;;;;4955010;29;20042;-78
2021/08/05 09:58:08;;;;;;;12.52;6.57;;;;;;;;;;4954122;28;20019;-75
2021/08/05 10:00:41;;;;;;;15.18;6.95;;;;;;;;;;4953750;29;20079;-76
2021/08/05 10:03:08;;;;;;;15.82;6.22;;;;;;;;;;4954139;29;20019;-71
2021/08/05 10:05:35;;;;;;;12.50;5.90;;;;;;;;;;4954449;29;20032;-67
2021/08/05 10:08:01;;;;;;;10.85;6.72;;;;;;;;;;4954167;28;20051;-71
2021/08/05 10:10:32;;;;;;;11.10;6.40;;;;;;;;;;4954105;29;20118;-76
2021/08/05 10:12:59;;;;;;;15.35;7.07;;;;;;;;;;4955677;29;20027;-89
2021/08/05 10:15:31;;;;;;;13.38;5.85;;;;;;;;;;4934274;29;20401;-81
2021/08/05 10:18:02;;;;;;;9.87;5.60;;;;;;;;;;4948249;28;20035;-74
2021/08/05 10:20:29;;;;;;;9.50;5.15;;;;;;;;;;4954037;29;20490;-68
2021/08/05 10:23:30;;;;;;;12.15;6.10;;;;;;;;;;4955632;28;20031;-70
2021/08/05 10:26:01;;;;;;;10.15;5.05;;;;;;;;;;4898254;29;20032;-85
2021/08/05 10:28:28;;;;;;;8.23;4.53;;;;;;;;;;4901949;29;20036;-79
2021/08/05 10:30:55;;;;;;;8.65;4.75;;;;;;;;;;4904582;29;20126;-75
2021/08/05 10:33:21;;;;;;;11.02;4.53;;;;;;;;;;4894258;29;20036;-74
2021/08/05 10:35:48;;;;;;;11.10;4.47;;;;;;;;;;4901090;29;20406;-67
2021/08/05 10:38:21;;;;;;;13.88;6.18;;;;;;;;;;4895929;29;20364;-74
2021/08/05 10:40:52;;;;;;;8.68;4.40;;;;;;;;;;4892639;29;20040;-69
2021/08/05 10:43:19;;;;;;;10.68;4.85;;;;;;;;;;4895448;29;20041;-73
2021/08/05 10:45:46;;;;;;;10.77;4.53;;;;;;;;;;4895635;29;20028;-72
2021/08/05 10:48:12;;;;;;;9.88;4.70;;;;;;;;;;4895501;29;20036;-69
2021/08/05 10:50:43;;;;;;;12.05;5.25;;;;;;;;;;4895779;29;20499;-74
2021/08/05 10:53:28;;;;;;;9.48;4.30;;;;;;;;;;4895528;29;20442;-74
2021/08/05 10:56:14;;;;;;;8.95;4.70;;;;;;;;;;4895431;29;20145;-71
2021/08/05 10:59:01;;;;;;;5.82;4.15;;;;;;;;;;4895105;29;20053;-72
2021/08/05 11:01:54;;;;;;;10.60;4.95;;;;;;;;;;4929640;29;20489;-73
2021/08/05 11:04:35;;;;;;;9.32;4.30;;;;;;;;;;4949516;29;20050;-74
2021/08/05 11:07:20;;;;;;;9.30;4.35;;;;;;;;;;4953897;29;20102;-72
2021/08/05 11:09:46;;;;;;;7.55;4.15;;;;;;;;;;4953693;28;20054;-74
2021/08/05 11:12:31;;;;;;;9.57;4.60;;;;;;;;;;4954226;29;20030;-75
2021/08/05 11:14:57;;;;;;;6.93;4.57;;;;;;;;;;4952845;29;20039;-74
2021/08/05 11:17:23;;;;;;;7.80;4.60;;;;;;;;;;4953469;29;20047;-74
2021/08/05 11:20:09;;;;;;;10.45;4.40;;;;;;;;;;4953853;29;20046;-75
2021/08/05 11:22:35;;;;;;;10.05;4.75;;;;;;;;;;4953523;29;20027;-74
2021/08/05 11:25:01;;;;;;;9.77;4.20;;;;;;;;;;4953859;29;20477;-73
2021/08/05 11:27:27;;;;;;;8.80;4.60;;;;;;;;;;4953848;29;20122;-72
2021/08/05 11:29:53;;;;;;;12.05;5.28;;;;;;;;;;4954263;29;20459;-70
2021/08/05 11:32:22;;;;;;;11.57;5.35;;;;;;;;;;4954099;29;20019;-76
2021/08/05 11:35:07;;;;;;;8.55;4.63;;;;;;;;;;4953418;29;20139;-72
2021/08/05 11:37:34;;;;;;;9.70;4.97;;;;;;;;;;4947960;29;20031;-73
2021/08/05 11:40:02;;;;;;;11.65;4.55;;;;;;;;;;4953525;29;20023;-71
2021/08/05 11:42:32;;;;;;;10.07;4.72;;;;;;;;;;4953560;28;20027;-67
2021/08/05 11:45:03;;;;;;;14.32;5.60;;;;;;;;;;4952379;28;20035;-72
2021/08/05 11:47:35;;;;;;;9.05;4.90;;;;;;;;;;4935456;29;20035;-71
2021/08/05 11:50:16;;;;;;;8.38;5.20;;;;;;;;;;4959728;28;20030;-72
2021/08/05 11:52:46;;;;;;;13.18;6.30;;;;;;;;;;4952435;29;20035;-71
2021/08/05 11:55:17;;;;;;;9.65;6.60;;;;;;;;;;4952462;29;20486;-69
2021/08/05 11:57:46;;;;;;;13.52;7.20;;;;;;;;;;4952953;29;20415;-70
2021/08/05 12:00:19;;;;;;;8.65;6.57;;;;;;;;;;4954463;28;20036;-67
2021/08/05 12:02:48;;;;;;;10.48;6.88;;;;;;;;;;4953166;29;20111;-70
2021/08/05 12:05:15;;;;;;;10.73;7.05;;;;;;;;;;4953253;29;20063;-63
2021/08/05 12:07:51;;;;;;;12.50;8.15;;;;;;;;;;4952688;28;20137;-68
2021/08/05 12:10:27;;;;;;;14.45;7.75;;;;;;;;;;4935724;29;20031;-77
2021/08/05 12:12:54;;;;;;;17.90;9.15;;;;;;;;;;4939269;29;20045;-68
2021/08/05 12:15:26;;;;;;;17.48;9.52;;;;;;;;;;4953098;29;20126;-74
2021/08/05 12:17:53;;;;;;;18.10;9.00;;;;;;;;;;4951974;29;20495;-71
2021/08/05 12:20:21;;;;;;;24.33;9.68;;;;;;;;;;4952030;29;20043;-70
2021/08/05 12:22:49;;;;;;;15.52;8.82;;;;;;;;;;4954459;28;20481;-74
2021/08/05 12:25:26;;;;;;;17.48;9.35;;;;;;;;;;4956681;29;20033;-64
2021/08/05 12:27:57;;;;;;;14.57;8.13;;;;;;;;;;4956905;29;20384;-77
2021/08/05 12:30:31;;;;;;;14.35;7.60;;;;;;;;;;4955260;29;20460;-76
2021/08/05 12:33:02;;;;;;;11.23;7.13;;;;;;;;;;4954984;29;20469;-74
2021/08/05 12:35:28;;;;;;;11.93;6.70;;;;;;;;;;4957344;28;20066;-68
2021/08/05 12:38:01;;;;;;;10.90;6.60;;;;;;;;;;4956528;29;20070;-70
2021/08/05 12:40:27;;;;;;;;;;;;;;;;;;4957265;29;20078;-68
2021/08/05 12:42:56;;;;;;;15.18;7.30;;;;;;;;;;4956235;29;19910;-69
2021/08/05 12:45:22;;;;;;;14.60;7.03;;;;;;;;;;4956953;29;20347;-71
2021/08/05 12:47:48;;;;;;;11.63;7.05;;;;;;;;;;4956073;28;20027;-69
2021/08/05 12:50:14;;;;;;;13.25;6.05;;;;;;;;;;4955661;29;20039;-64
2021/08/05 12:52:40;;;;;;;14.10;6.28;;;;;;;;;;4956009;29;20039;-84
2021/08/05 12:55:08;;;;;;;7.70;5.18;;;;;;;;;;4958966;28;20152;-64
2021/08/05 12:57:40;;;;;;;8.32;4.88;;;;;;;;;;4955928;29;20021;-69
2021/08/05 13:00:27;;;;;;;9.43;5.35;;;;;;;;;;4949730;29;20056;-75
2021/08/05 13:02:56;;;;;;;9.60;5.05;;;;;;;;;;4956186;29;20102;-75
2021/08/05 13:05:23;;;;;;;9.25;5.10;;;;;;;;;;4956564;29;20034;-74
2021/08/05 13:07:51;;;;;;;10.13;4.80;;;;;;;;;;4961670;28;20050;-72
2021/08/05 13:10:20;;;;;;;7.35;4.20;;;;;;;;;;4956225;29;20035;-76
2021/08/05 13:12:49;;;;;;;11.68;4.60;;;;;;;;;;4956278;29;20118;-70
2021/08/05 13:15:32;;;;;;;8.57;4.60;;;;;;;;;;4958366;29;20039;-72
2021/08/05 13:18:01;;;;;;;8.03;4.17;;;;;;;;;;4956768;28;20118;-76
2021/08/05 13:20:29;;;;;;;6.38;3.90;;;;;;;;;;4956417;29;20039;-75
2021/08/05 13:22:57;;;;;;;5.60;3.80;;;;;;;;;;4953007;29;20496;-74
2021/08/05 13:25:25;;;;;;;8.77;4.78;;;;;;;;;;4955160;29;20035;-69
2021/08/05 13:28:09;;;;;;;8.98;4.45;;;;;;;;;;4955769;29;20039;-74
2021/08/05 13:30:36;;;;;;;8.73;5.05;;;;;;;;;;4949605;29;20570;-76
2021/08/05 13:33:18;;;;;;;10.20;4.80;;;;;;;;;;4955178;28;20067;-75
2021/08/05 13:35:45;;;;;;;10.38;4.43;;;;;;;;;;4955715;28;20496;-75
2021/08/05 13:38:11;;;;;;;7.95;4.70;;;;;;;;;;4955305;29;20027;-75
2021/08/05 13:40:37;;;;;;;6.50;4.25;;;;;;;;;;4955682;29;20034;-75
2021/08/05 13:43:06;;;;;;;9.38;4.72;;;;;;;;;;4955869;29;20054;-75
2021/08/05 13:45:32;;;;;;;8.77;4.50;;;;;;;;;;4955505;29;20027;-75
2021/08/05 13:47:59;;;;;;;7.38;4.32;;;;;;;;;;4955555;29;20030;-71
2021/08/05 13:50:29;;;;;;;8.35;4.93;;;;;;;;;;4959557;29;20415;-75
2021/08/05 13:52:57;;;;;;;9.55;5.00;;;;;;;;;;4955698;29;20023;-73
2021/08/05 13:55:24;;;;;;;8.88;4.60;;;;;;;;;;4955192;29;20043;-75
2021/08/05 13:57:53;;;;;;;8.80;4.88;;;;;;;;;;4955612;29;20031;-75
2021/08/05 14:00:19;;;;;;;7.82;4.78;;;;;;;;;;4955312;29;20037;-75
2021/08/05 14:02:46;;;;;;;7.47;4.55;;;;;;;;;;4955342;29;20031;-69
2021/08/05 14:05:13;;;;;;;6.60;4.47;;;;;;;;;;4955113;29;20027;-73
2021/08/05 14:07:41;;;;;;;5.55;4.15;;;;;;;;;;4955968;28;20042;-75
2021/08/05 14:10:07;;;;;;;10.02;4.50;;;;;;;;;;4955298;29;20039;-76
2021/08/05 14:12:38;;;;;;;9.35;4.80;;;;;;;;;;4956082;29;20551;-73
2021/08/05 14:15:16;;;;;;;7.07;4.30;;;;;;;;;;4963962;28;20050;-75
2021/08/05 14:17:50;;;;;;;7.28;5.05;;;;;;;;;;4955124;29;20434;-74
2021/08/05 14:20:17;;;;;;;6.75;4.20;;;;;;;;;;4953880;29;20043;-69
2021/08/05 14:22:43;;;;;;;7.38;4.80;;;;;;;;;;4955121;29;20031;-66
2021/08/05 14:25:10;;;;;;;6.60;4.60;;;;;;;;;;4955166;29;20031;-72
2021/08/05 14:27:36;;;;;;;7.35;4.35;;;;;;;;;;4954731;29;20031;-74
2021/08/05 14:30:10;;;;;;;7.32;4.45;;;;;;;;;;4957292;29;20173;-73
2021/08/05 14:32:38;;;;;;;8.93;4.60;;;;;;;;;;4946334;29;20083;-71
2021/08/05 14:35:05;;;;;;;7.68;4.20;;;;;;;;;;4955173;29;20434;-74
2021/08/05 14:37:31;;;;;;;6.28;3.90;;;;;;;;;;4937267;29;20102;-72
2021/08/05 14:40:03;;;;;;;8.60;4.75;;;;;;;;;;4958850;29;20034;-74
2021/08/05 14:42:29;;;;;;;7.25;4.38;;;;;;;;;;4954499;29;20027;-73